sensor_id;sensor_type;location;lat;lon;timestamp;pressure;altitude;pressure_sealevel;temperature;humidity
18569;BME280;14780;48.316;-1.050;2023-02-16T00:00:44;99938.34;;;23.33;34.92
18569;BME280;14780;48.316;-1.050;2023-02-16T00:03:29;99940.25;;;23.33;34.94
18569;BME280;14780;48.316;-1.050;2023-02-16T00:06:14;99940.84;;;23.35;34.93
18569;BME280;14780;48.316;-1.050;2023-02-16T00:08:59;99938.59;;;23.32;34.84
18569;BME280;14780;48.316;-1.050;2023-02-16T00:11:45;99949.53;;;23.32;34.93
18569;BME280;14780;48.316;-1.050;2023-02-16T00:14:49;99944.31;;;23.31;34.85
18569;BME280;14780;48.316;-1.050;2023-02-16T00:17:34;99951.66;;;23.30;34.85
18569;BME280;14780;48.316;-1.050;2023-02-16T00:20:19;99947.03;;;23.31;34.80
18569;BME280;14780;48.316;-1.050;2023-02-16T00:23:04;99947.03;;;23.31;34.91
18569;BME280;14780;48.316;-1.050;2023-02-16T00:25:48;99939.94;;;23.30;34.84
18569;BME280;14780;48.316;-1.050;2023-02-16T00:28:33;99944.31;;;23.31;34.82
18569;BME280;14780;48.316;-1.050;2023-02-16T00:31:21;99933.63;;;23.29;34.83
18569;BME280;14780;48.316;-1.050;2023-02-16T00:34:24;99932.81;;;23.29;34.86
18569;BME280;14780;48.316;-1.050;2023-02-16T00:37:11;99941.47;;;23.26;34.87
18569;BME280;14780;48.316;-1.050;2023-02-16T00:39:56;99944.22;;;23.26;34.84
18569;BME280;14780;48.316;-1.050;2023-02-16T00:42:45;99941.00;;;23.29;34.83
18569;BME280;14780;48.316;-1.050;2023-02-16T00:45:35;99947.53;;;23.28;34.86
18569;BME280;14780;48.316;-1.050;2023-02-16T00:48:22;99940.41;;;23.27;34.81
18569;BME280;14780;48.316;-1.050;2023-02-16T00:51:07;99934.13;;;23.26;34.81
18569;BME280;14780;48.316;-1.050;2023-02-16T00:53:53;99934.94;;;23.27;34.80
18569;BME280;14780;48.316;-1.050;2023-02-16T00:56:39;99929.47;;;23.27;34.68
18569;BME280;14780;48.316;-1.050;2023-02-16T00:59:25;99931.16;;;23.28;34.79
18569;BME280;14780;48.316;-1.050;2023-02-16T01:02:10;99928.66;;;23.26;34.77
18569;BME280;14780;48.316;-1.050;2023-02-16T01:04:55;99931.97;;;23.28;34.73
18569;BME280;14780;48.316;-1.050;2023-02-16T01:07:40;99929.47;;;23.27;34.80
18569;BME280;14780;48.316;-1.050;2023-02-16T01:10:44;99928.44;;;23.28;34.72
18569;BME280;14780;48.316;-1.050;2023-02-16T01:13:47;99924.63;;;23.29;34.78
18569;BME280;14780;48.316;-1.050;2023-02-16T01:16:40;99923.53;;;23.30;34.74
18569;BME280;14780;48.316;-1.050;2023-02-16T01:19:26;99925.44;;;23.29;34.75
18569;BME280;14780;48.316;-1.050;2023-02-16T01:22:10;99932.31;;;23.32;34.72
18569;BME280;14780;48.316;-1.050;2023-02-16T01:24:55;99933.16;;;23.32;34.71
18569;BME280;14780;48.316;-1.050;2023-02-16T01:27:41;99924.34;;;23.30;34.70
18569;BME280;14780;48.316;-1.050;2023-02-16T01:30:26;99927.94;;;23.31;34.70
18569;BME280;14780;48.316;-1.050;2023-02-16T01:33:11;99931.22;;;23.33;34.71
18569;BME280;14780;48.316;-1.050;2023-02-16T01:35:57;99925.75;;;23.33;34.66
18569;BME280;14780;48.316;-1.050;2023-02-16T01:38:41;99927.41;;;23.33;34.68
18569;BME280;14780;48.316;-1.050;2023-02-16T01:42:19;99927.69;;;23.32;34.58
18569;BME280;14780;48.316;-1.050;2023-02-16T01:45:04;99930.66;;;23.31;34.63
18569;BME280;14780;48.316;-1.050;2023-02-16T01:48:11;99930.66;;;23.31;34.64
18569;BME280;14780;48.316;-1.050;2023-02-16T01:51:13;99930.41;;;23.32;34.63
18569;BME280;14780;48.316;-1.050;2023-02-16T01:54:11;99936.63;;;23.28;34.63
18569;BME280;14780;48.316;-1.050;2023-02-16T02:03:22;99932.53;;;23.30;34.58
18569;BME280;14780;48.316;-1.050;2023-02-16T02:06:14;99938.28;;;23.29;34.56
18569;BME280;14780;48.316;-1.050;2023-02-16T02:14:49;99930.56;;;23.26;34.60
18569;BME280;14780;48.316;-1.050;2023-02-16T02:17:35;99924.53;;;23.24;34.54
18569;BME280;14780;48.316;-1.050;2023-02-16T02:20:22;99924.88;;;23.27;34.49
18569;BME280;14780;48.316;-1.050;2023-02-16T02:27:10;99912.53;;;23.25;34.58
18569;BME280;14780;48.316;-1.050;2023-02-16T02:30:25;99912.88;;;23.28;34.57
18569;BME280;14780;48.316;-1.050;2023-02-16T02:33:51;99904.34;;;23.25;34.60
18569;BME280;14780;48.316;-1.050;2023-02-16T02:36:49;99908.16;;;23.24;34.51
18569;BME280;14780;48.316;-1.050;2023-02-16T02:45:26;99893.41;;;23.25;34.49
18569;BME280;14780;48.316;-1.050;2023-02-16T02:48:12;99891.25;;;23.27;34.49
18569;BME280;14780;48.316;-1.050;2023-02-16T02:51:03;99889.38;;;23.27;34.52
18569;BME280;14780;48.316;-1.050;2023-02-16T02:54:32;99887.72;;;23.26;34.52
18569;BME280;14780;48.316;-1.050;2023-02-16T02:57:43;99875.63;;;23.22;34.54
18569;BME280;14780;48.316;-1.050;2023-02-16T03:00:50;99880.09;;;23.28;34.46
18569;BME280;14780;48.316;-1.050;2023-02-16T03:03:59;99865.63;;;23.28;34.51
18569;BME280;14780;48.316;-1.050;2023-02-16T03:06:47;99867.84;;;23.31;34.44
18569;BME280;14780;48.316;-1.050;2023-02-16T03:09:32;99872.22;;;23.32;34.51
18569;BME280;14780;48.316;-1.050;2023-02-16T03:12:17;99864.88;;;23.32;34.48
18569;BME280;14780;48.316;-1.050;2023-02-16T03:15:22;99878.25;;;23.33;34.43
18569;BME280;14780;48.316;-1.050;2023-02-16T03:18:09;99880.19;;;23.33;34.48
18569;BME280;14780;48.316;-1.050;2023-02-16T03:21:14;99878.25;;;23.33;34.45
18569;BME280;14780;48.316;-1.050;2023-02-16T03:24:25;99869.25;;;23.33;34.47
18569;BME280;14780;48.316;-1.050;2023-02-16T03:27:41;99871.41;;;23.31;34.42
18569;BME280;14780;48.316;-1.050;2023-02-16T03:30:46;99871.91;;;23.28;34.48
18569;BME280;14780;48.316;-1.050;2023-02-16T03:33:32;99866.78;;;23.32;34.39
18569;BME280;14780;48.316;-1.050;2023-02-16T03:36:28;99872.22;;;23.32;34.47
18569;BME280;14780;48.316;-1.050;2023-02-16T03:39:14;99871.16;;;23.33;34.44
18569;BME280;14780;48.316;-1.050;2023-02-16T03:41:59;99868.69;;;23.31;34.46
18569;BME280;14780;48.316;-1.050;2023-02-16T03:44:43;99865.69;;;23.33;34.42
18569;BME280;14780;48.316;-1.050;2023-02-16T03:47:28;99857.78;;;23.31;34.34
18569;BME280;14780;48.316;-1.050;2023-02-16T03:50:13;99871.66;;;23.30;34.37
18569;BME280;14780;48.316;-1.050;2023-02-16T03:52:58;99877.13;;;23.30;34.45
18569;BME280;14780;48.316;-1.050;2023-02-16T03:55:52;99876.56;;;23.28;34.43
18569;BME280;14780;48.316;-1.050;2023-02-16T03:58:36;99872.75;;;23.29;34.34
18569;BME280;14780;48.316;-1.050;2023-02-16T04:01:21;99873.06;;;23.32;34.38
18569;BME280;14780;48.316;-1.050;2023-02-16T04:04:05;99871.41;;;23.31;34.40
18569;BME280;14780;48.316;-1.050;2023-02-16T04:06:50;99870.25;;;23.27;34.47
18569;BME280;14780;48.316;-1.050;2023-02-16T04:09:35;99862.63;;;23.29;34.37
18569;BME280;14780;48.316;-1.050;2023-02-16T04:12:19;99863.47;;;23.30;34.40
18569;BME280;14780;48.316;-1.050;2023-02-16T04:15:25;99869.41;;;23.27;34.35
18569;BME280;14780;48.316;-1.050;2023-02-16T04:18:11;99875.72;;;23.27;34.29
18569;BME280;14780;48.316;-1.050;2023-02-16T04:20:55;99861.81;;;23.29;34.43
18569;BME280;14780;48.316;-1.050;2023-02-16T04:23:40;99861.72;;;23.24;34.44
18569;BME280;14780;48.316;-1.050;2023-02-16T04:26:24;99868.94;;;23.30;34.39
18569;BME280;14780;48.316;-1.050;2023-02-16T04:29:09;99869.41;;;23.27;34.41
18569;BME280;14780;48.316;-1.050;2023-02-16T04:31:54;99877.03;;;23.25;34.48
18569;BME280;14780;48.316;-1.050;2023-02-16T04:34:39;99870.25;;;23.27;34.38
18569;BME280;14780;48.316;-1.050;2023-02-16T04:37:23;99873.81;;;23.28;34.42
18569;BME280;14780;48.316;-1.050;2023-02-16T04:40:10;99871.09;;;23.28;34.42
18569;BME280;14780;48.316;-1.050;2023-02-16T04:42:57;99880.09;;;23.28;34.35
18569;BME280;14780;48.316;-1.050;2023-02-16T04:45:41;99876.03;;;23.31;34.37
18569;BME280;14780;48.316;-1.050;2023-02-16T04:48:26;99872.75;;;23.29;34.32
18569;BME280;14780;48.316;-1.050;2023-02-16T04:51:11;99870.56;;;23.31;34.41
18569;BME280;14780;48.316;-1.050;2023-02-16T04:53:56;99867.59;;;23.32;34.27
18569;BME280;14780;48.316;-1.050;2023-02-16T04:56:43;99859.16;;;23.33;34.34
18569;BME280;14780;48.316;-1.050;2023-02-16T04:59:29;99870.66;;;23.36;34.33
18569;BME280;14780;48.316;-1.050;2023-02-16T05:02:14;99865.22;;;23.36;34.28
18569;BME280;14780;48.316;-1.050;2023-02-16T05:04:58;99860.56;;;23.36;34.36
18569;BME280;14780;48.316;-1.050;2023-02-16T05:07:43;99866.84;;;23.37;34.30
18569;BME280;14780;48.316;-1.050;2023-02-16T05:10:28;99867.09;;;23.35;34.34
18569;BME280;14780;48.316;-1.050;2023-02-16T05:13:13;99868.50;;;23.38;34.36
18569;BME280;14780;48.316;-1.050;2023-02-16T05:16:18;99869.59;;;23.37;34.31
18569;BME280;14780;48.316;-1.050;2023-02-16T05:19:03;99866.84;;;23.37;34.34
18569;BME280;14780;48.316;-1.050;2023-02-16T05:21:48;99867.09;;;23.35;34.34
18569;BME280;14780;48.316;-1.050;2023-02-16T05:24:32;99870.06;;;23.33;34.35
18569;BME280;14780;48.316;-1.050;2023-02-16T05:27:23;99878.03;;;23.35;34.29
18569;BME280;14780;48.316;-1.050;2023-02-16T05:30:09;99888.38;;;23.33;34.27
18569;BME280;14780;48.316;-1.050;2023-02-16T05:32:54;99881.84;;;23.34;34.26
18569;BME280;14780;48.316;-1.050;2023-02-16T05:35:38;99892.44;;;23.31;34.34
18569;BME280;14780;48.316;-1.050;2023-02-16T05:38:23;99891.59;;;23.30;34.35
18569;BME280;14780;48.316;-1.050;2023-02-16T05:41:08;99879.34;;;23.33;34.31
18569;BME280;14780;48.316;-1.050;2023-02-16T05:43:58;99874.41;;;23.30;34.28
18569;BME280;14780;48.316;-1.050;2023-02-16T05:46:43;99849.25;;;23.28;34.40
18569;BME280;14780;48.316;-1.050;2023-02-16T05:49:30;99849.56;;;23.31;34.26
18569;BME280;14780;48.316;-1.050;2023-02-16T05:52:14;99839.97;;;23.29;34.28
18569;BME280;14780;48.316;-1.050;2023-02-16T05:54:59;99841.63;;;23.30;34.26
18569;BME280;14780;48.316;-1.050;2023-02-16T05:57:43;99844.03;;;23.26;34.39
18569;BME280;14780;48.316;-1.050;2023-02-16T06:00:28;99844.59;;;23.28;34.29
18569;BME280;14780;48.316;-1.050;2023-02-16T06:03:17;99863.13;;;23.26;34.37
18569;BME280;14780;48.316;-1.050;2023-02-16T06:06:02;99866.97;;;23.25;34.28
18569;BME280;14780;48.316;-1.050;2023-02-16T06:08:47;99869.16;;;23.28;34.43
18569;BME280;14780;48.316;-1.050;2023-02-16T06:11:33;99868.94;;;23.30;34.32
18569;BME280;14780;48.316;-1.050;2023-02-16T06:14:21;99868.94;;;23.30;34.44
18569;BME280;14780;48.316;-1.050;2023-02-16T06:17:06;99869.41;;;23.27;34.35
18569;BME280;14780;48.316;-1.050;2023-02-16T06:19:50;99867.28;;;23.29;34.44
18569;BME280;14780;48.316;-1.050;2023-02-16T06:22:35;99873.06;;;23.32;34.44
18569;BME280;14780;48.316;-1.050;2023-02-16T06:25:20;99872.22;;;23.32;34.38
18569;BME280;14780;48.316;-1.050;2023-02-16T06:28:05;99870.56;;;23.31;34.45
18569;BME280;14780;48.316;-1.050;2023-02-16T06:30:49;99872.97;;;23.27;34.52
18569;BME280;14780;48.316;-1.050;2023-02-16T06:33:34;99877.94;;;23.30;34.46
18569;BME280;14780;48.316;-1.050;2023-02-16T06:36:19;99882.06;;;23.33;34.46
18569;BME280;14780;48.316;-1.050;2023-02-16T06:39:03;99900.09;;;23.33;34.41
18569;BME280;14780;48.316;-1.050;2023-02-16T06:41:48;99894.66;;;23.33;34.38
18569;BME280;14780;48.316;-1.050;2023-02-16T06:44:33;99895.72;;;23.33;34.46
18569;BME280;14780;48.316;-1.050;2023-02-16T06:47:18;99904.25;;;23.36;34.40
18569;BME280;14780;48.316;-1.050;2023-02-16T06:50:05;99897.13;;;23.35;34.40
18569;BME280;14780;48.316;-1.050;2023-02-16T06:52:50;99906.16;;;23.36;34.37
18569;BME280;14780;48.316;-1.050;2023-02-16T06:55:35;99901.28;;;23.38;34.37
18569;BME280;14780;48.316;-1.050;2023-02-16T06:58:20;99901.50;;;23.36;34.44
18569;BME280;14780;48.316;-1.050;2023-02-16T07:01:04;99919.88;;;23.40;34.44
18569;BME280;14780;48.316;-1.050;2023-02-16T07:03:51;99913.84;;;23.38;34.45
18569;BME280;14780;48.316;-1.050;2023-02-16T07:06:36;99919.88;;;23.40;34.38
18569;BME280;14780;48.316;-1.050;2023-02-16T07:09:21;99922.56;;;23.36;34.45
18569;BME280;14780;48.316;-1.050;2023-02-16T07:12:05;99933.22;;;23.37;34.53
18569;BME280;14780;48.316;-1.050;2023-02-16T07:14:50;99928.00;;;23.36;34.48
18569;BME280;14780;48.316;-1.050;2023-02-16T07:17:35;99934.28;;;23.36;34.41
18569;BME280;14780;48.316;-1.050;2023-02-16T07:20:19;99943.56;;;23.35;34.40
18569;BME280;14780;48.316;-1.050;2023-02-16T07:23:04;99952.09;;;23.38;34.51
18569;BME280;14780;48.316;-1.050;2023-02-16T07:25:50;99962.53;;;23.42;34.73
18569;BME280;14780;48.316;-1.050;2023-02-16T07:28:34;99959.81;;;23.42;34.77
18569;BME280;14780;48.316;-1.050;2023-02-16T07:31:19;99953.50;;;23.41;34.85
18569;BME280;14780;48.316;-1.050;2023-02-16T07:34:04;99952.41;;;23.42;34.70
18569;BME280;14780;48.316;-1.050;2023-02-16T07:36:49;99946.06;;;23.37;34.78
18569;BME280;14780;48.316;-1.050;2023-02-16T07:39:34;99953.16;;;23.38;34.86
18569;BME280;14780;48.316;-1.050;2023-02-16T07:42:20;99961.34;;;23.38;34.75
18569;BME280;14780;48.316;-1.050;2023-02-16T07:45:05;99961.94;;;23.39;34.82
18569;BME280;14780;48.316;-1.050;2023-02-16T07:47:50;99955.38;;;23.40;34.83
18569;BME280;14780;48.316;-1.050;2023-02-16T07:50:36;99947.72;;;23.38;34.73
18569;BME280;14780;48.316;-1.050;2023-02-16T07:53:21;99955.91;;;23.38;34.72
18569;BME280;14780;48.316;-1.050;2023-02-16T07:56:05;99944.97;;;23.38;34.78
18569;BME280;14780;48.316;-1.050;2023-02-16T07:58:51;99954.50;;;23.35;34.77
18569;BME280;14780;48.316;-1.050;2023-02-16T08:01:37;99952.50;;;23.31;34.83
18569;BME280;14780;48.316;-1.050;2023-02-16T08:04:22;99953.69;;;23.35;34.91
18569;BME280;14780;48.316;-1.050;2023-02-16T08:07:06;99960.78;;;23.36;34.84
18569;BME280;14780;48.316;-1.050;2023-02-16T08:09:52;99966.25;;;23.36;34.90
18569;BME280;14780;48.316;-1.050;2023-02-16T08:12:37;99967.34;;;23.35;34.87
18569;BME280;14780;48.316;-1.050;2023-02-16T08:15:22;99974.84;;;23.44;34.82
18569;BME280;14780;48.316;-1.050;2023-02-16T08:18:07;99983.31;;;23.42;34.93
18569;BME280;14780;48.316;-1.050;2023-02-16T08:20:52;99974.03;;;23.43;34.93
18569;BME280;14780;48.316;-1.050;2023-02-16T08:23:36;99982.22;;;23.43;35.04
18569;BME280;14780;48.316;-1.050;2023-02-16T08:26:23;99988.81;;;23.47;34.95
18569;BME280;14780;48.316;-1.050;2023-02-16T08:29:09;99980.63;;;23.47;35.01
18569;BME280;14780;48.316;-1.050;2023-02-16T08:31:56;99981.22;;;23.49;34.95
18569;BME280;14780;48.316;-1.050;2023-02-16T08:34:40;99990.00;;;23.51;34.97
18569;BME280;14780;48.316;-1.050;2023-02-16T08:37:26;99975.25;;;23.52;34.89
18569;BME280;14780;48.316;-1.050;2023-02-16T08:40:10;99977.19;;;23.52;34.99
18569;BME280;14780;48.316;-1.050;2023-02-16T08:42:55;99971.72;;;23.52;34.95
18569;BME280;14780;48.316;-1.050;2023-02-16T08:45:47;99987.84;;;23.53;34.87
18569;BME280;14780;48.316;-1.050;2023-02-16T08:48:32;99987.84;;;23.53;34.89
18569;BME280;14780;48.316;-1.050;2023-02-16T08:51:19;99986.19;;;23.52;34.92
18569;BME280;14780;48.316;-1.050;2023-02-16T08:54:05;99985.38;;;23.52;34.97
18569;BME280;14780;48.316;-1.050;2023-02-16T08:56:53;100004.50;;;23.52;35.03
18569;BME280;14780;48.316;-1.050;2023-02-16T08:59:39;100001.50;;;23.53;34.89
18569;BME280;14780;48.316;-1.050;2023-02-16T09:02:23;100015.16;;;23.53;34.86
18569;BME280;14780;48.316;-1.050;2023-02-16T09:05:08;100006.97;;;23.53;34.87
18569;BME280;14780;48.316;-1.050;2023-02-16T09:07:53;100009.97;;;23.52;34.97
18569;BME280;14780;48.316;-1.050;2023-02-16T09:10:38;100004.22;;;23.53;34.96
18569;BME280;14780;48.316;-1.050;2023-02-16T09:13:23;100007.94;;;23.47;35.07
18569;BME280;14780;48.316;-1.050;2023-02-16T09:16:11;100009.63;;;23.48;34.99
18569;BME280;14780;48.316;-1.050;2023-02-16T09:18:56;100016.41;;;23.46;35.06
18569;BME280;14780;48.316;-1.050;2023-02-16T09:21:42;100016.75;;;23.49;34.92
18569;BME280;14780;48.316;-1.050;2023-02-16T09:24:27;100016.75;;;23.49;34.98
18569;BME280;14780;48.316;-1.050;2023-02-16T09:27:12;100023.75;;;23.45;35.11
18569;BME280;14780;48.316;-1.050;2023-02-16T09:29:57;100025.50;;;23.51;34.97
18569;BME280;14780;48.316;-1.050;2023-02-16T09:32:42;100017.56;;;23.50;35.09
18569;BME280;14780;48.316;-1.050;2023-02-16T09:35:26;100024.34;;;23.47;34.97
18569;BME280;14780;48.316;-1.050;2023-02-16T09:38:11;100026.03;;;23.48;35.05
18569;BME280;14780;48.316;-1.050;2023-02-16T09:41:07;100021.13;;;23.50;35.00
18569;BME280;14780;48.316;-1.050;2023-02-16T09:47:24;100033.13;;;23.49;35.04
18569;BME280;14780;48.316;-1.050;2023-02-16T09:53:06;100038.59;;;23.49;35.05
18569;BME280;14780;48.316;-1.050;2023-02-16T09:55:58;100035.59;;;23.51;35.04
18569;BME280;14780;48.316;-1.050;2023-02-16T09:59:00;100041.91;;;23.51;34.98
18569;BME280;14780;48.316;-1.050;2023-02-16T10:02:00;100030.47;;;23.54;34.92
18569;BME280;14780;48.316;-1.050;2023-02-16T10:05:23;100035.94;;;23.54;34.92
18569;BME280;14780;48.316;-1.050;2023-02-16T10:08:26;100036.78;;;23.55;34.89
18569;BME280;14780;48.316;-1.050;2023-02-16T10:11:19;100036.78;;;23.55;34.93
18569;BME280;14780;48.316;-1.050;2023-02-16T10:20:32;100044.13;;;23.54;34.97
18569;BME280;14780;48.316;-1.050;2023-02-16T10:23:25;100049.59;;;23.54;34.91
18569;BME280;14780;48.316;-1.050;2023-02-16T10:26:48;100057.22;;;23.52;34.85
18569;BME280;14780;48.316;-1.050;2023-02-16T10:29:34;100052.31;;;23.54;34.93
18569;BME280;14780;48.316;-1.050;2023-02-16T10:32:25;100060.28;;;23.56;34.90
18569;BME280;14780;48.316;-1.050;2023-02-16T10:35:14;100055.06;;;23.54;34.89
18569;BME280;14780;48.316;-1.050;2023-02-16T10:38:17;100052.31;;;23.54;34.85
18569;BME280;14780;48.316;-1.050;2023-02-16T10:41:16;100046.28;;;23.52;34.92
18569;BME280;14780;48.316;-1.050;2023-02-16T10:44:08;100052.81;;;23.51;34.86
18569;BME280;14780;48.316;-1.050;2023-02-16T10:46:59;100061.88;;;23.52;34.90
18569;BME280;14780;48.316;-1.050;2023-02-16T10:49:45;100056.41;;;23.52;34.92
18569;BME280;14780;48.316;-1.050;2023-02-16T10:52:36;100056.88;;;23.49;34.91
18569;BME280;14780;48.316;-1.050;2023-02-16T10:55:22;100072.47;;;23.48;34.87
18569;BME280;14780;48.316;-1.050;2023-02-16T10:58:32;100075.75;;;23.50;34.85
18569;BME280;14780;48.316;-1.050;2023-02-16T11:04:49;100061.53;;;23.48;34.73
18569;BME280;14780;48.316;-1.050;2023-02-16T11:07:51;100067.81;;;23.49;34.73
18569;BME280;14780;48.316;-1.050;2023-02-16T11:10:57;100067.22;;;23.47;34.72
18569;BME280;14780;48.316;-1.050;2023-02-16T11:13:58;100065.91;;;23.49;34.75
18569;BME280;14780;48.316;-1.050;2023-02-16T11:16:44;100058.81;;;23.48;34.72
18569;BME280;14780;48.316;-1.050;2023-02-16T11:19:30;100067.00;;;23.48;34.75
18569;BME280;14780;48.316;-1.050;2023-02-16T11:22:30;100064.25;;;23.48;34.74
18569;BME280;14780;48.316;-1.050;2023-02-16T11:25:21;100060.78;;;23.53;34.73
18569;BME280;14780;48.316;-1.050;2023-02-16T11:28:06;100062.91;;;23.51;34.79
18569;BME280;14780;48.316;-1.050;2023-02-16T11:30:59;100057.22;;;23.52;34.81
18569;BME280;14780;48.316;-1.050;2023-02-16T11:36:44;100051.50;;;23.54;34.77
18569;BME280;14780;48.316;-1.050;2023-02-16T11:39:34;100047.69;;;23.55;34.77
18569;BME280;14780;48.316;-1.050;2023-02-16T11:42:40;100043.03;;;23.55;34.68
18569;BME280;14780;48.316;-1.050;2023-02-16T11:45:31;100043.03;;;23.55;34.71
18569;BME280;14780;48.316;-1.050;2023-02-16T11:48:25;100035.13;;;23.54;34.66
18569;BME280;14780;48.316;-1.050;2023-02-16T11:51:13;100039.50;;;23.55;34.70
18569;BME280;14780;48.316;-1.050;2023-02-16T11:54:02;100035.94;;;23.54;34.69
18569;BME280;14780;48.316;-1.050;2023-02-16T11:57:06;100029.91;;;23.52;34.78
18569;BME280;14780;48.316;-1.050;2023-02-16T11:59:55;100022.88;;;23.56;34.84
18569;BME280;14780;48.316;-1.050;2023-02-16T12:06:05;100019.63;;;23.59;34.74
18569;BME280;14780;48.316;-1.050;2023-02-16T12:15:29;100010.25;;;23.55;34.86
18569;BME280;14780;48.316;-1.050;2023-02-16T12:18:40;100000.41;;;23.54;34.92
18569;BME280;14780;48.316;-1.050;2023-02-16T12:27:41;99993.06;;;23.55;34.94
18569;BME280;14780;48.316;-1.050;2023-02-16T12:30:39;99984.63;;;23.56;34.99
18569;BME280;14780;48.316;-1.050;2023-02-16T12:36:43;99988.41;;;23.55;35.02
18569;BME280;14780;48.316;-1.050;2023-02-16T12:39:44;99990.09;;;23.56;35.08
18569;BME280;14780;48.316;-1.050;2023-02-16T12:45:35;99974.75;;;23.55;35.00
18569;BME280;14780;48.316;-1.050;2023-02-16T12:51:25;99975.81;;;23.54;35.20
18569;BME280;14780;48.316;-1.050;2023-02-16T12:57:48;99962.78;;;23.56;35.05
18569;BME280;14780;48.316;-1.050;2023-02-16T13:03:37;99963.91;;;23.60;35.05
18569;BME280;14780;48.316;-1.050;2023-02-16T13:12:41;99962.50;;;23.58;34.97
18569;BME280;14780;48.316;-1.050;2023-02-16T13:15:40;99959.44;;;23.54;35.04
18569;BME280;14780;48.316;-1.050;2023-02-16T13:18:37;99953.50;;;23.57;35.00
18569;BME280;14780;48.316;-1.050;2023-02-16T13:36:27;99947.72;;;23.54;35.01
18569;BME280;14780;48.316;-1.050;2023-02-16T13:39:41;99952.31;;;23.53;35.09
18569;BME280;14780;48.316;-1.050;2023-02-16T13:45:43;99951.50;;;23.53;35.08
18569;BME280;14780;48.316;-1.050;2023-02-16T13:48:46;99950.16;;;23.55;35.06
18569;BME280;14780;48.316;-1.050;2023-02-16T13:51:45;99961.94;;;23.56;35.05
18569;BME280;14780;48.316;-1.050;2023-02-16T13:54:41;99955.63;;;23.55;35.08
18569;BME280;14780;48.316;-1.050;2023-02-16T14:00:44;99951.84;;;23.56;34.96
18569;BME280;14780;48.316;-1.050;2023-02-16T14:03:34;99947.72;;;23.54;35.06
18569;BME280;14780;48.316;-1.050;2023-02-16T14:06:35;99945.78;;;23.54;35.15
18569;BME280;14780;48.316;-1.050;2023-02-16T14:09:37;99949.13;;;23.56;35.07
18569;BME280;14780;48.316;-1.050;2023-02-16T14:12:30;99939.84;;;23.57;35.16
18569;BME280;14780;48.316;-1.050;2023-02-16T14:15:18;99944.97;;;23.54;35.19
18569;BME280;14780;48.316;-1.050;2023-02-16T14:18:24;99938.44;;;23.55;35.13
18569;BME280;14780;48.316;-1.050;2023-02-16T14:24:29;99945.53;;;23.56;35.18
18569;BME280;14780;48.316;-1.050;2023-02-16T14:27:38;99944.69;;;23.55;35.11
18569;BME280;14780;48.316;-1.050;2023-02-16T14:30:53;99945.31;;;23.57;35.04
18569;BME280;14780;48.316;-1.050;2023-02-16T14:34:00;99941.72;;;23.57;35.00
18569;BME280;14780;48.316;-1.050;2023-02-16T14:43:03;99945.78;;;23.54;35.14
18569;BME280;14780;48.316;-1.050;2023-02-16T14:55:39;99946.88;;;23.53;35.27
18569;BME280;14780;48.316;-1.050;2023-02-16T14:58:36;99948.50;;;23.54;35.33
18569;BME280;14780;48.316;-1.050;2023-02-16T15:01:23;99946.38;;;23.56;35.20
18569;BME280;14780;48.316;-1.050;2023-02-16T15:04:10;99948.03;;;23.57;35.26
18569;BME280;14780;48.316;-1.050;2023-02-16T15:06:56;99948.50;;;23.54;35.25
18569;BME280;14780;48.316;-1.050;2023-02-16T15:09:42;99940.91;;;23.56;35.39
18569;BME280;14780;48.316;-1.050;2023-02-16T15:12:29;99944.22;;;23.58;35.36
18569;BME280;14780;48.316;-1.050;2023-02-16T15:15:19;99945.88;;;23.59;35.34
18569;BME280;14780;48.316;-1.050;2023-02-16T15:18:05;99942.56;;;23.57;35.46
18569;BME280;14780;48.316;-1.050;2023-02-16T15:20:54;99940.97;;;23.61;35.31
18569;BME280;14780;48.316;-1.050;2023-02-16T15:23:48;99936.59;;;23.60;35.44
18569;BME280;14780;48.316;-1.050;2023-02-16T15:26:34;99938.19;;;23.56;35.52
18569;BME280;14780;48.316;-1.050;2023-02-16T15:29:24;99934.94;;;23.59;35.39
18569;BME280;14780;48.316;-1.050;2023-02-16T15:32:15;99934.09;;;23.59;35.50
18569;BME280;14780;48.316;-1.050;2023-02-16T15:35:10;99930.81;;;23.57;35.52
18569;BME280;14780;48.316;-1.050;2023-02-16T15:38:03;99935.19;;;23.58;35.50
18569;BME280;14780;48.316;-1.050;2023-02-16T15:40:53;99937.69;;;23.59;35.56
18569;BME280;14780;48.316;-1.050;2023-02-16T15:43:47;99937.69;;;23.59;35.56
18569;BME280;14780;48.316;-1.050;2023-02-16T15:46:40;99936.25;;;23.57;35.54
18569;BME280;14780;48.316;-1.050;2023-02-16T15:49:28;99934.09;;;23.59;35.59
18569;BME280;14780;48.316;-1.050;2023-02-16T15:52:30;99934.94;;;23.59;35.49
18569;BME280;14780;48.316;-1.050;2023-02-16T15:55:16;99938.75;;;23.58;35.55
18569;BME280;14780;48.316;-1.050;2023-02-16T15:58:01;99932.13;;;23.54;35.59
18569;BME280;14780;48.316;-1.050;2023-02-16T16:00:46;99925.34;;;23.57;35.56
18569;BME280;14780;48.316;-1.050;2023-02-16T16:03:31;99926.19;;;23.57;35.63
18569;BME280;14780;48.316;-1.050;2023-02-16T16:06:16;99926.19;;;23.57;35.54
18569;BME280;14780;48.316;-1.050;2023-02-16T16:09:02;99926.19;;;23.57;35.49
18569;BME280;14780;48.316;-1.050;2023-02-16T16:11:54;99927.25;;;23.56;35.63
18569;BME280;14780;48.316;-1.050;2023-02-16T16:14:48;99936.25;;;23.57;35.46
18569;BME280;14780;48.316;-1.050;2023-02-16T16:17:37;99933.47;;;23.52;35.57
18569;BME280;14780;48.316;-1.050;2023-02-16T16:20:41;99936.78;;;23.54;35.55
18569;BME280;14780;48.316;-1.050;2023-02-16T16:23:27;99934.63;;;23.56;35.52
18569;BME280;14780;48.316;-1.050;2023-02-16T16:26:19;99934.63;;;23.56;35.46
18569;BME280;14780;48.316;-1.050;2023-02-16T16:29:32;99932.13;;;23.54;35.46
18569;BME280;14780;48.316;-1.050;2023-02-16T16:32:23;99932.13;;;23.54;35.63
18569;BME280;14780;48.316;-1.050;2023-02-16T16:35:20;99928.59;;;23.54;35.57
18569;BME280;14780;48.316;-1.050;2023-02-16T16:38:27;99930.75;;;23.52;35.74
18569;BME280;14780;48.316;-1.050;2023-02-16T16:41:27;99931.31;;;23.54;35.63
18569;BME280;14780;48.316;-1.050;2023-02-16T16:44:37;99938.94;;;23.52;35.83
18569;BME280;14780;48.316;-1.050;2023-02-16T16:47:37;99934.28;;;23.52;35.81